createdAt,value
2023-03-02T00:00:57.876Z,9.97
2023-03-02T00:03:24.749Z,9.97
2023-03-02T00:05:51.666Z,10.09
2023-03-02T00:08:18.496Z,10.15
2023-03-02T00:10:45.808Z,9.94
2023-03-02T00:13:12.957Z,9.78
2023-03-02T00:15:39.979Z,9.72
2023-03-02T00:18:06.817Z,9.87
2023-03-02T00:20:35.009Z,9.78
2023-03-02T00:23:01.824Z,9.97
2023-03-02T00:25:28.912Z,9.92
2023-03-02T00:27:55.785Z,9.79
2023-03-02T00:30:22.549Z,9.63
2023-03-02T00:32:49.382Z,9.81
2023-03-02T00:35:16.505Z,9.79
2023-03-02T00:37:43.528Z,9.72
2023-03-02T00:40:10.944Z,9.40
2023-03-02T00:42:38.084Z,9.65
2023-03-02T00:45:06.018Z,9.72
2023-03-02T00:47:36.784Z,9.56
2023-03-02T00:50:05.056Z,9.54
2023-03-02T00:52:32.513Z,9.58
2023-03-02T00:54:59.539Z,9.19
2023-03-02T00:57:26.481Z,9.56
2023-03-02T00:59:53.343Z,9.45
2023-03-02T01:02:21.861Z,9.56
2023-03-02T01:04:48.888Z,9.23
2023-03-02T01:07:17.384Z,9.21
2023-03-02T01:09:44.697Z,9.46
2023-03-02T01:12:11.602Z,9.49
2023-03-02T01:14:39.192Z,9.17
2023-03-02T01:17:06.696Z,9.09
2023-03-02T01:19:33.721Z,8.83
2023-03-02T01:22:00.611Z,8.95
2023-03-02T01:24:27.429Z,9.29
2023-03-02T01:26:54.359Z,8.88
2023-03-02T01:29:21.194Z,9.13
2023-03-02T01:31:48.077Z,8.79
2023-03-02T01:34:15.019Z,9.24
2023-03-02T01:36:44.919Z,8.94
2023-03-02T01:39:16.117Z,9.07
2023-03-02T01:41:46.104Z,8.82
2023-03-02T01:44:32.780Z,8.75
2023-03-02T01:46:59.581Z,8.51
2023-03-02T01:49:26.390Z,8.69
2023-03-02T01:51:53.412Z,8.57
2023-03-02T01:54:23.325Z,8.60
2023-03-02T01:56:51.429Z,8.82
2023-03-02T01:59:19.727Z,8.57
2023-03-02T02:01:50.606Z,8.42
2023-03-02T02:04:17.796Z,8.81
2023-03-02T02:07:00.957Z,8.81
2023-03-02T02:09:28.465Z,8.78
2023-03-02T02:11:55.276Z,8.68
2023-03-02T02:14:22.254Z,8.75
2023-03-02T02:16:49.049Z,8.41
2023-03-02T02:19:24.743Z,8.69
2023-03-02T02:21:51.509Z,8.41
2023-03-02T02:24:23.245Z,7.96
2023-03-02T02:26:51.994Z,8.69
2023-03-02T02:29:25.216Z,8.36
2023-03-02T02:31:54.121Z,8.71
2023-03-02T02:34:36.238Z,8.71
2023-03-02T02:37:28.786Z,8.64
2023-03-02T02:39:55.875Z,8.40
2023-03-02T02:42:28.898Z,8.50
2023-03-02T02:44:57.798Z,8.46
2023-03-02T02:47:24.598Z,8.51
2023-03-02T02:49:52.921Z,8.43
2023-03-02T02:52:20.948Z,8.67
2023-03-02T02:54:50.526Z,8.41
2023-03-02T02:57:17.949Z,8.56
2023-03-02T02:59:52.875Z,8.71
2023-03-02T03:02:28.592Z,8.68
2023-03-02T03:05:02.939Z,8.52
2023-03-02T03:07:32.728Z,8.05
2023-03-02T03:10:24.704Z,8.51
2023-03-02T03:12:51.914Z,8.16
2023-03-02T03:15:18.766Z,8.46
2023-03-02T03:17:55.304Z,8.34
2023-03-02T03:20:22.129Z,7.93
2023-03-02T03:22:48.972Z,7.83
2023-03-02T03:25:16.012Z,8.03
2023-03-02T03:27:43.124Z,7.32
2023-03-02T03:30:12.138Z,7.60
2023-03-02T03:32:39.201Z,7.65
2023-03-02T03:35:08.933Z,7.09
2023-03-02T03:37:35.777Z,6.74
2023-03-02T03:40:02.871Z,7.50
2023-03-02T03:42:29.608Z,7.60
2023-03-02T03:44:56.349Z,7.18
2023-03-02T03:47:23.274Z,7.13
2023-03-02T03:49:50.133Z,7.14
2023-03-02T03:52:16.857Z,7.19
2023-03-02T03:54:43.752Z,7.23
2023-03-02T03:57:12.282Z,7.04
2023-03-02T03:59:39.026Z,7.08
2023-03-02T04:02:06.091Z,7.25
2023-03-02T04:04:34.184Z,7.32
2023-03-02T04:07:00.929Z,7.02
2023-03-02T04:09:27.981Z,7.39
2023-03-02T04:11:55.546Z,7.28
2023-03-02T04:14:22.980Z,7.02
2023-03-02T04:16:49.980Z,7.34
2023-03-02T04:19:17.796Z,7.21
2023-03-02T04:21:47.646Z,7.24
2023-03-02T04:24:14.731Z,7.55
2023-03-02T04:26:42.743Z,7.36
2023-03-02T04:29:09.931Z,7.41
2023-03-02T04:31:36.735Z,7.71
2023-03-02T04:34:06.314Z,7.38
2023-03-02T04:36:34.589Z,7.49
2023-03-02T04:39:01.750Z,7.51
2023-03-02T04:41:28.477Z,7.35
2023-03-02T04:43:55.379Z,7.31
2023-03-02T04:46:23.781Z,7.30
2023-03-02T04:48:50.618Z,7.03
2023-03-02T04:51:26.394Z,7.26
2023-03-02T04:53:57.714Z,7.37
2023-03-02T04:56:24.618Z,7.03
2023-03-02T04:58:51.870Z,6.89
2023-03-02T05:01:18.696Z,6.27
2023-03-02T05:03:45.641Z,6.95
2023-03-02T05:06:12.631Z,6.74
2023-03-02T05:08:39.493Z,6.60
2023-03-02T05:11:06.724Z,6.39
2023-03-02T05:13:33.961Z,6.53
2023-03-02T05:16:00.804Z,6.21
2023-03-02T05:18:27.586Z,6.13
2023-03-02T05:20:54.602Z,6.11
2023-03-02T05:23:25.540Z,6.28
2023-03-02T05:25:55.304Z,5.75
2023-03-02T05:28:23.444Z,6.41
2023-03-02T05:30:50.427Z,6.58
2023-03-02T05:33:17.484Z,6.42
2023-03-02T05:35:44.454Z,6.71
2023-03-02T05:38:11.845Z,6.89
2023-03-02T05:40:39.568Z,6.62
2023-03-02T05:43:06.453Z,6.74
2023-03-02T05:45:35.559Z,6.51
2023-03-02T05:48:02.610Z,7.05
2023-03-02T05:50:29.360Z,6.81
2023-03-02T05:52:56.165Z,6.87
2023-03-02T05:55:22.983Z,6.50
2023-03-02T05:57:49.910Z,6.84
2023-03-02T06:00:17.374Z,7.00
2023-03-02T06:02:44.366Z,6.25
2023-03-02T06:05:16.347Z,6.72
2023-03-02T06:07:43.349Z,6.52
2023-03-02T06:10:11.321Z,6.56
2023-03-02T06:12:38.399Z,6.91
2023-03-02T06:15:07.518Z,6.58
2023-03-02T06:17:34.335Z,6.00
2023-03-02T06:20:01.257Z,6.35
2023-03-02T06:22:28.031Z,6.52
2023-03-02T06:24:57.982Z,6.66
2023-03-02T06:27:24.696Z,6.65
2023-03-02T06:29:51.578Z,6.48
2023-03-02T06:32:18.561Z,6.49
2023-03-02T06:34:45.571Z,6.36
2023-03-02T06:37:12.295Z,6.39
2023-03-02T06:39:39.389Z,6.39
2023-03-02T06:42:06.486Z,6.37
2023-03-02T06:44:33.237Z,6.43
2023-03-02T06:47:00.126Z,6.04
2023-03-02T06:49:27.218Z,6.46
2023-03-02T06:51:54.032Z,6.07
2023-03-02T06:54:22.632Z,6.15
2023-03-02T06:56:50.512Z,6.34
2023-03-02T06:59:17.340Z,6.13
2023-03-02T07:01:44.297Z,6.04
2023-03-02T07:04:11.093Z,5.51
2023-03-02T07:06:37.980Z,6.15
2023-03-02T07:09:04.789Z,6.23
2023-03-02T07:11:31.763Z,5.73
2023-03-02T07:14:00.566Z,6.17
2023-03-02T07:16:27.715Z,6.24
2023-03-02T07:18:54.736Z,6.28
2023-03-02T07:21:21.772Z,6.13
2023-03-02T07:23:48.611Z,6.43
2023-03-02T07:26:15.394Z,6.10
2023-03-02T07:28:43.593Z,6.28
2023-03-02T07:31:11.145Z,6.64
2023-03-02T07:33:38.758Z,6.49
2023-03-02T07:36:06.824Z,6.68
2023-03-02T07:38:33.744Z,6.84
2023-03-02T07:41:00.690Z,6.36
2023-03-02T07:43:29.009Z,6.95
2023-03-02T07:45:56.400Z,7.07
2023-03-02T07:48:23.993Z,7.39
2023-03-02T07:50:50.805Z,7.35
2023-03-02T07:53:17.566Z,7.71
2023-03-02T07:55:44.727Z,8.05
2023-03-02T07:58:11.645Z,8.31
2023-03-02T08:00:41.261Z,8.27
2023-03-02T08:03:09.375Z,8.50
2023-03-02T08:05:36.386Z,8.07
2023-03-02T08:08:03.128Z,8.99
2023-03-02T08:10:29.868Z,9.19
2023-03-02T08:12:56.858Z,9.16
2023-03-02T08:15:23.811Z,9.19
2023-03-02T08:17:50.702Z,9.63
2023-03-02T08:20:17.651Z,9.44
2023-03-02T08:22:44.383Z,9.86
2023-03-02T08:25:11.205Z,9.85
2023-03-02T08:27:40.445Z,10.37
2023-03-02T08:30:07.696Z,10.47
2023-03-02T08:32:34.673Z,10.62
2023-03-02T08:35:01.682Z,10.98
2023-03-02T08:37:28.730Z,11.13
2023-03-02T08:39:57.488Z,11.65
2023-03-02T08:42:25.465Z,11.91
2023-03-02T08:44:52.310Z,12.16
2023-03-02T08:47:19.042Z,12.22
2023-03-02T08:49:47.985Z,12.23
2023-03-02T08:52:15.565Z,12.73
2023-03-02T08:54:42.518Z,12.69
2023-03-02T08:57:12.518Z,12.59
2023-03-02T08:59:39.287Z,12.53
2023-03-02T09:02:06.092Z,12.66
2023-03-02T09:04:32.987Z,12.30
2023-03-02T09:06:59.722Z,12.55
2023-03-02T09:09:26.597Z,12.52
2023-03-02T09:11:53.525Z,12.50
2023-03-02T09:14:20.326Z,12.63
2023-03-02T09:16:47.606Z,12.39
2023-03-02T09:19:14.668Z,12.76
2023-03-02T09:21:41.506Z,12.92
2023-03-02T09:24:08.536Z,13.06
2023-03-02T09:26:36.341Z,13.02
2023-03-02T09:29:03.143Z,13.25
2023-03-02T09:31:30.499Z,13.55
2023-03-02T09:33:57.561Z,13.52
2023-03-02T09:36:25.152Z,13.24
2023-03-02T09:38:52.293Z,13.01
2023-03-02T09:41:19.472Z,13.85
2023-03-02T09:44:17.062Z,13.81
2023-03-02T09:46:56.668Z,13.43
2023-03-02T09:49:41.707Z,14.04
2023-03-02T09:52:29.434Z,14.19
2023-03-02T09:54:57.265Z,14.27
2023-03-02T09:57:31.760Z,14.53
2023-03-02T10:00:19.257Z,14.48
2023-03-02T10:03:17.222Z,14.41
2023-03-02T10:05:46.354Z,14.65
2023-03-02T10:08:34.521Z,14.44
2023-03-02T10:11:35.479Z,14.49
2023-03-02T10:14:13.747Z,13.87
2023-03-02T10:16:53.427Z,14.37
2023-03-02T10:19:28.824Z,14.34
2023-03-02T10:22:09.559Z,14.64
2023-03-02T10:24:38.845Z,14.91
2023-03-02T10:27:28.358Z,14.21
2023-03-02T10:30:09.254Z,15.01
2023-03-02T10:32:37.599Z,14.78
2023-03-02T10:35:30.918Z,15.02
2023-03-02T10:38:20.648Z,14.94
2023-03-02T10:41:03.084Z,15.30
2023-03-02T10:43:37.535Z,15.37
2023-03-02T10:46:07.823Z,15.72
2023-03-02T10:48:53.437Z,15.53
2023-03-02T10:51:28.137Z,15.97
2023-03-02T10:54:10.918Z,16.35
2023-03-02T10:56:37.928Z,16.35
2023-03-02T10:59:40.513Z,16.83
2023-03-02T11:02:23.741Z,17.00
2023-03-02T11:04:58.373Z,17.05
2023-03-02T11:07:29.262Z,17.14
2023-03-02T11:10:01.997Z,17.42
2023-03-02T11:12:29.250Z,17.40
2023-03-02T11:15:12.383Z,17.31
2023-03-02T11:17:39.307Z,17.31
2023-03-02T11:20:06.944Z,17.72
2023-03-02T11:22:38.900Z,17.87
2023-03-02T11:25:07.044Z,17.98
2023-03-02T11:27:35.202Z,18.30
2023-03-02T11:30:18.927Z,18.90
2023-03-02T11:33:16.592Z,19.27
2023-03-02T11:35:49.497Z,19.62
2023-03-02T11:38:49.086Z,19.72
2023-03-02T11:41:27.609Z,19.90
2023-03-02T11:43:55.059Z,19.88
2023-03-02T11:46:27.628Z,20.19
2023-03-02T11:48:55.889Z,20.29
2023-03-02T11:51:24.464Z,20.88
2023-03-02T11:54:20.157Z,21.37
2023-03-02T11:56:47.131Z,21.36
2023-03-02T11:59:17.084Z,22.00
2023-03-02T12:01:45.370Z,22.42
2023-03-02T12:04:32.768Z,22.39
2023-03-02T12:07:05.143Z,22.70
2023-03-02T12:09:36.718Z,23.73
2023-03-02T12:12:23.875Z,24.19
2023-03-02T12:14:50.725Z,23.85
2023-03-02T12:17:26.831Z,24.07
2023-03-02T12:20:08.896Z,24.27
2023-03-02T12:22:36.080Z,24.55
2023-03-02T12:25:21.303Z,25.43
2023-03-02T12:27:49.807Z,25.84
2023-03-02T12:30:16.870Z,26.18
2023-03-02T12:32:44.778Z,26.37
2023-03-02T12:35:13.143Z,26.69
2023-03-02T12:37:53.613Z,26.97
2023-03-02T12:40:45.303Z,27.38
2023-03-02T12:43:27.881Z,27.83
2023-03-02T12:46:32.671Z,28.29
2023-03-02T12:49:11.575Z,28.65
2023-03-02T12:51:48.922Z,28.98
2023-03-02T12:54:17.840Z,29.14
2023-03-02T12:56:44.594Z,29.19
2023-03-02T12:59:25.539Z,28.68
2023-03-02T13:01:52.386Z,28.60
2023-03-02T13:04:26.156Z,28.14
2023-03-02T13:06:53.934Z,28.08
2023-03-02T13:09:21.169Z,27.82
2023-03-02T13:11:49.486Z,27.81
2023-03-02T13:14:20.089Z,27.83
2023-03-02T13:16:54.853Z,27.67
2023-03-02T13:19:21.654Z,27.59
2023-03-02T13:21:48.557Z,27.14
2023-03-02T13:24:34.870Z,27.51
2023-03-02T13:27:08.451Z,27.65
2023-03-02T13:29:35.669Z,28.29
2023-03-02T13:32:42.223Z,28.32
2023-03-02T13:35:26.578Z,27.85
2023-03-02T13:37:59.005Z,26.93
2023-03-02T13:40:39.258Z,24.99
2023-03-02T13:43:40.619Z,23.85
2023-03-02T13:46:13.860Z,23.22
2023-03-02T13:48:40.624Z,22.40
2023-03-02T13:51:17.771Z,21.01
2023-03-02T13:54:00.768Z,20.73
2023-03-02T13:56:33.257Z,20.06
2023-03-02T13:59:00.952Z,19.55
2023-03-02T14:01:28.325Z,19.29
2023-03-02T14:03:57.321Z,18.88
2023-03-02T14:06:24.140Z,18.56
2023-03-02T14:08:50.959Z,18.42
2023-03-02T14:11:18.085Z,17.98
2023-03-02T14:13:51.415Z,17.95
2023-03-02T14:16:18.851Z,17.52
2023-03-02T14:18:47.132Z,17.30
2023-03-02T14:21:20.895Z,17.32
2023-03-02T14:23:47.845Z,16.92
2023-03-02T14:26:33.610Z,16.99
2023-03-02T14:29:06.298Z,16.50
2023-03-02T14:31:34.510Z,16.54
2023-03-02T14:34:02.010Z,16.61
2023-03-02T14:36:33.247Z,16.35
2023-03-02T14:39:02.186Z,16.23
2023-03-02T14:41:29.201Z,16.27
2023-03-02T14:43:55.945Z,15.94
2023-03-02T14:46:22.967Z,15.92
2023-03-02T14:48:49.825Z,15.85
2023-03-02T14:51:24.785Z,15.61
2023-03-02T14:53:51.905Z,15.64
2023-03-02T14:56:20.248Z,15.56
2023-03-02T14:58:47.212Z,15.80
2023-03-02T15:01:14.064Z,15.60
2023-03-02T15:03:40.923Z,15.46
2023-03-02T15:06:26.542Z,15.35
2023-03-02T15:08:54.668Z,15.55
2023-03-02T15:11:21.540Z,15.49
2023-03-02T15:13:48.489Z,15.23
2023-03-02T15:16:15.705Z,15.40
2023-03-02T15:18:42.603Z,15.13
2023-03-02T15:21:18.742Z,15.34
2023-03-02T15:23:45.581Z,15.12
2023-03-02T15:26:13.986Z,14.88
2023-03-02T15:28:41.424Z,15.12
2023-03-02T15:31:09.885Z,15.01
2023-03-02T15:33:36.873Z,15.16
2023-03-02T15:36:06.582Z,15.09
2023-03-02T15:38:34.289Z,14.89
2023-03-02T15:41:11.611Z,14.46
2023-03-02T15:43:38.461Z,15.06
2023-03-02T15:46:09.668Z,14.98
2023-03-02T15:48:37.043Z,14.77
2023-03-02T15:51:05.422Z,14.67
2023-03-02T15:53:35.049Z,14.89
2023-03-02T15:56:10.600Z,14.91
2023-03-02T15:58:37.459Z,14.69
2023-03-02T16:01:08.467Z,14.80
2023-03-02T16:03:35.415Z,14.83
2023-03-02T16:06:02.543Z,14.81
2023-03-02T16:08:29.367Z,14.80
2023-03-02T16:10:59.988Z,14.60
2023-03-02T16:13:26.961Z,14.75
2023-03-02T16:15:54.338Z,14.52
2023-03-02T16:18:21.189Z,14.43
2023-03-02T16:20:47.928Z,14.67
2023-03-02T16:23:16.275Z,14.56
2023-03-02T16:25:50.140Z,14.62
2023-03-02T16:28:17.732Z,14.60
2023-03-02T16:30:44.752Z,14.58
2023-03-02T16:33:16.436Z,14.53
2023-03-02T16:35:43.304Z,14.27
2023-03-02T16:38:10.218Z,14.36
2023-03-02T16:40:40.221Z,14.41
2023-03-02T16:43:09.128Z,13.81
2023-03-02T16:45:36.203Z,14.12
2023-03-02T16:48:04.314Z,14.16
2023-03-02T16:50:31.195Z,14.23
2023-03-02T16:52:59.320Z,14.26
2023-03-02T16:55:26.335Z,13.90
2023-03-02T16:57:53.131Z,14.20
2023-03-02T17:00:20.513Z,14.17
2023-03-02T17:02:47.596Z,13.85
2023-03-02T17:05:14.899Z,13.87
2023-03-02T17:07:41.840Z,14.08
2023-03-02T17:10:09.847Z,14.05
2023-03-02T17:12:36.596Z,13.95
2023-03-02T17:15:03.583Z,13.80
2023-03-02T17:17:31.190Z,13.96
2023-03-02T17:19:58.104Z,13.64
2023-03-02T17:22:25.144Z,13.76
2023-03-02T17:24:52.083Z,13.11
2023-03-02T17:27:24.985Z,13.57
2023-03-02T17:29:52.698Z,13.73
2023-03-02T17:32:19.570Z,13.84
2023-03-02T17:34:47.030Z,13.81
2023-03-02T17:37:14.313Z,13.76
2023-03-02T17:39:41.345Z,13.58
2023-03-02T17:42:08.157Z,13.72
2023-03-02T17:44:37.672Z,13.58
2023-03-02T17:47:06.500Z,13.44
2023-03-02T17:49:33.260Z,12.94
2023-03-02T17:52:00.340Z,13.37
2023-03-02T17:54:27.298Z,12.90
2023-03-02T17:56:54.053Z,13.14
2023-03-02T17:59:21.053Z,12.55
2023-03-02T18:01:47.863Z,12.87
2023-03-02T18:04:14.729Z,13.19
2023-03-02T18:06:41.665Z,12.75
2023-03-02T18:09:08.497Z,12.93
2023-03-02T18:11:35.310Z,12.79
2023-03-02T18:14:02.326Z,13.15
2023-03-02T18:16:29.534Z,12.79
2023-03-02T18:18:57.501Z,12.62
2023-03-02T18:21:24.531Z,12.92
2023-03-02T18:23:51.520Z,12.44
2023-03-02T18:26:20.563Z,12.95
2023-03-02T18:28:47.500Z,11.98
2023-03-02T18:31:15.203Z,12.85
2023-03-02T18:33:42.054Z,12.68
2023-03-02T18:36:09.263Z,12.66
2023-03-02T18:38:36.176Z,12.61
2023-03-02T18:41:04.098Z,12.66
2023-03-02T18:43:35.081Z,12.61
2023-03-02T18:46:04.109Z,12.43
2023-03-02T18:48:31.477Z,11.90
2023-03-02T18:50:58.687Z,12.14
2023-03-02T18:53:26.620Z,12.04
2023-03-02T18:55:56.570Z,12.38
2023-03-02T18:58:24.016Z,12.23
2023-03-02T19:00:51.848Z,12.29
2023-03-02T19:03:18.634Z,12.24
2023-03-02T19:05:45.599Z,12.20
2023-03-02T19:08:12.461Z,11.95
2023-03-02T19:10:39.917Z,11.94
2023-03-02T19:13:09.464Z,11.95
2023-03-02T19:15:38.357Z,12.07
2023-03-02T19:18:05.257Z,12.03
2023-03-02T19:20:32.381Z,11.40
2023-03-02T19:22:59.226Z,11.78
2023-03-02T19:25:25.992Z,11.39
2023-03-02T19:27:52.889Z,11.61
2023-03-02T19:30:22.592Z,11.55
2023-03-02T19:32:49.466Z,11.53
2023-03-02T19:35:18.155Z,11.66
2023-03-02T19:37:45.143Z,11.68
2023-03-02T19:40:17.482Z,11.75
2023-03-02T19:42:45.622Z,11.51
2023-03-02T19:45:15.448Z,11.77
2023-03-02T19:47:42.741Z,11.52
2023-03-02T19:50:10.153Z,11.73
2023-03-02T19:52:37.652Z,11.71
2023-03-02T19:55:06.535Z,11.51
2023-03-02T19:57:33.580Z,11.61
2023-03-02T20:00:00.396Z,11.67
2023-03-02T20:02:27.374Z,11.45
2023-03-02T20:04:54.250Z,11.56
2023-03-02T20:07:20.967Z,11.33
2023-03-02T20:09:47.838Z,11.44
2023-03-02T20:12:15.922Z,11.53
2023-03-02T20:14:44.451Z,11.40
2023-03-02T20:17:11.455Z,11.28
2023-03-02T20:19:38.334Z,11.45
2023-03-02T20:22:07.004Z,11.54
2023-03-02T20:24:33.999Z,11.39
2023-03-02T20:27:00.853Z,11.49
2023-03-02T20:29:27.736Z,11.03
2023-03-02T20:31:54.710Z,11.46
2023-03-02T20:34:21.535Z,11.23
2023-03-02T20:36:48.393Z,11.15
2023-03-02T20:39:18.531Z,11.43
2023-03-02T20:41:47.752Z,11.42
2023-03-02T20:44:14.971Z,11.27
2023-03-02T20:46:47.722Z,11.39
2023-03-02T20:49:15.525Z,11.15
2023-03-02T20:51:44.021Z,11.12
2023-03-02T20:54:10.865Z,10.99
2023-03-02T20:56:37.690Z,11.15
2023-03-02T20:59:04.612Z,10.95
2023-03-02T21:01:31.603Z,10.71
2023-03-02T21:03:58.684Z,11.26
2023-03-02T21:06:25.512Z,11.17
2023-03-02T21:08:52.809Z,10.54
2023-03-02T21:11:20.885Z,11.01
2023-03-02T21:13:47.919Z,11.03
2023-03-02T21:16:21.040Z,10.87
2023-03-02T21:18:47.823Z,11.23
2023-03-02T21:21:15.801Z,11.08
2023-03-02T21:23:42.874Z,10.80
2023-03-02T21:26:10.500Z,11.11
2023-03-02T21:28:37.480Z,10.95
2023-03-02T21:31:05.074Z,10.97
2023-03-02T21:33:32.125Z,11.26
2023-03-02T21:35:58.898Z,11.27
2023-03-02T21:38:25.865Z,11.06
2023-03-02T21:40:52.894Z,10.92
2023-03-02T21:43:19.857Z,10.75
2023-03-02T21:45:47.448Z,11.33
2023-03-02T21:48:14.544Z,11.35
2023-03-02T21:50:41.382Z,11.34
2023-03-02T21:53:08.709Z,10.58
2023-03-02T21:55:37.008Z,11.06
2023-03-02T21:58:04.030Z,11.29
2023-03-02T22:00:36.112Z,11.04
2023-03-02T22:03:02.947Z,11.13
2023-03-02T22:05:30.287Z,10.55
2023-03-02T22:07:57.453Z,10.33
2023-03-02T22:10:24.289Z,11.32
2023-03-02T22:12:54.840Z,9.93
2023-03-02T22:15:22.572Z,11.20
2023-03-02T22:17:51.381Z,10.96
2023-03-02T22:20:18.958Z,10.67
2023-03-02T22:22:45.942Z,10.73
2023-03-02T22:25:15.726Z,10.31
2023-03-02T22:27:42.720Z,10.38
2023-03-02T22:30:20.561Z,10.97
2023-03-02T22:32:47.572Z,11.00
2023-03-02T22:35:14.826Z,11.20
2023-03-02T22:37:41.999Z,11.18
2023-03-02T22:40:29.325Z,11.17
2023-03-02T22:43:23.202Z,11.11
2023-03-02T22:45:49.981Z,10.97
2023-03-02T22:48:18.214Z,11.09
2023-03-02T22:50:46.359Z,10.21
2023-03-02T22:53:30.389Z,10.36
2023-03-02T22:56:01.861Z,10.81
2023-03-02T22:58:31.771Z,11.02
2023-03-02T23:00:58.785Z,10.98
2023-03-02T23:03:40.263Z,10.97
2023-03-02T23:06:24.360Z,10.94
2023-03-02T23:08:56.081Z,10.85
2023-03-02T23:11:23.476Z,10.63
2023-03-02T23:13:50.583Z,10.90
2023-03-02T23:16:28.309Z,10.62
2023-03-02T23:18:56.385Z,10.57
2023-03-02T23:21:37.740Z,10.82
2023-03-02T23:24:05.041Z,10.39
2023-03-02T23:26:31.994Z,10.38
2023-03-02T23:28:59.116Z,10.72
2023-03-02T23:31:25.914Z,10.69
2023-03-02T23:33:52.831Z,10.62
2023-03-02T23:36:21.309Z,10.28
2023-03-02T23:38:48.986Z,10.16
2023-03-02T23:41:16.010Z,9.54
2023-03-02T23:43:42.861Z,10.01
2023-03-02T23:46:14.037Z,10.27
2023-03-02T23:48:41.772Z,10.06
2023-03-02T23:51:08.911Z,9.93
2023-03-02T23:53:35.744Z,10.09
2023-03-02T23:56:02.480Z,9.81
2023-03-02T23:58:29.434Z,8.84
